Map

Track Data

SID SEASON NUMBER BASIN SUBBASIN NAME ISO_TIME NATURE LAT LON WMO_WIND WMO_PRES WMO_AGENCY TRACK_TYPE DIST2LAND LANDFALL IFLAG USA_AGENCY USA_ATCF_ID USA_LAT USA_LON USA_RECORD USA_STATUS USA_WIND USA_PRES USA_SSHS USA_R34_NE USA_R34_SE USA_R34_SW USA_R34_NW USA_R50_NE USA_R50_SE USA_R50_SW USA_R50_NW USA_R64_NE USA_R64_SE USA_R64_SW USA_R64_NW USA_POCI USA_ROCI USA_RMW USA_EYE TOKYO_LAT TOKYO_LON TOKYO_GRADE TOKYO_WIND TOKYO_PRES TOKYO_R50_DIR TOKYO_R50_LONG TOKYO_R50_SHORT TOKYO_R30_DIR TOKYO_R30_LONG TOKYO_R30_SHORT TOKYO_LAND CMA_LAT CMA_LON CMA_CAT CMA_WIND CMA_PRES HKO_LAT HKO_LON HKO_CAT HKO_WIND HKO_PRES NEWDELHI_LAT NEWDELHI_LON NEWDELHI_GRADE NEWDELHI_WIND NEWDELHI_PRES NEWDELHI_CI NEWDELHI_DP NEWDELHI_POCI REUNION_LAT REUNION_LON REUNION_TYPE REUNION_WIND REUNION_PRES REUNION_TNUM REUNION_CI REUNION_RMW REUNION_R34_NE REUNION_R34_SE REUNION_R34_SW REUNION_R34_NW REUNION_R50_NE REUNION_R50_SE REUNION_R50_SW REUNION_R50_NW REUNION_R64_NE REUNION_R64_SE REUNION_R64_SW REUNION_R64_NW BOM_LAT BOM_LON BOM_TYPE BOM_WIND BOM_PRES BOM_TNUM BOM_CI BOM_RMW BOM_R34_NE BOM_R34_SE BOM_R34_SW BOM_R34_NW BOM_R50_NE BOM_R50_SE BOM_R50_SW BOM_R50_NW BOM_R64_NE BOM_R64_SE BOM_R64_SW BOM_R64_NW BOM_ROCI BOM_POCI BOM_EYE BOM_POS_METHOD BOM_PRES_METHOD NADI_LAT NADI_LON NADI_CAT NADI_WIND NADI_PRES WELLINGTON_LAT WELLINGTON_LON WELLINGTON_WIND WELLINGTON_PRES DS824_LAT DS824_LON DS824_STAGE DS824_WIND DS824_PRES TD9636_LAT TD9636_LON TD9636_STAGE TD9636_WIND TD9636_PRES TD9635_LAT TD9635_LON TD9635_WIND TD9635_PRES TD9635_ROCI NEUMANN_LAT NEUMANN_LON NEUMANN_CLASS NEUMANN_WIND NEUMANN_PRES MLC_LAT MLC_LON MLC_CLASS MLC_WIND MLC_PRES USA_GUST BOM_GUST BOM_GUST_PER REUNION_GUST REUNION_GUST_PER USA_SEAHGT USA_SEARAD_NE USA_SEARAD_SE USA_SEARAD_SW USA_SEARAD_NW STORM_SPEED STORM_DIR
1999163N27302 1999 37 NA NA ARLENE 1999-06-11 18:00:00 TS 27.1000 -58.1000 30 1010 hurdat_atl main 1238 1238 O_____________ hurdat_atl AL011999 27.1000 -58.1000 TD 30 1010 -1 10 49
1999163N27302 1999 37 NA NA ARLENE 1999-06-11 21:00:00 TS 27.4154 -57.6932 main 1289 1289 P_____________ AL011999 27.4154 -57.6932 TD 30 1010 -1 9 46
1999163N27302 1999 37 NA NA ARLENE 1999-06-12 00:00:00 TS 27.7000 -57.4000 30 1010 hurdat_atl main 1334 1334 O_____________ hurdat_atl AL011999 27.7000 -57.4000 TD 30 1010 -1 6 34
1999163N27302 1999 37 NA NA ARLENE 1999-06-12 03:00:00 TS 27.9298 -57.2972 main 1358 1358 P_____________ AL011999 27.9298 -57.2972 TD 30 1010 -1 4 12
1999163N27302 1999 37 NA NA ARLENE 1999-06-12 06:00:00 TS 28.1000 -57.3000 30 1010 hurdat_atl main 1375 1375 O_____________ hurdat_atl AL011999 28.1000 -57.3000 TD 30 1010 -1 3 2
1999163N27302 1999 37 NA NA ARLENE 1999-06-12 09:00:00 TS 28.2150 -57.2850 main 1383 1383 P_____________ AL011999 28.2150 -57.2850 TD 32 1009 -1 2 8
1999163N27302 1999 37 NA NA ARLENE 1999-06-12 12:00:00 TS 28.3000 -57.3000 35 1009 hurdat_atl main 1392 1392 O_____________ hurdat_atl AL011999 28.3000 -57.3000 TS 35 1009 0 2 343
1999163N27302 1999 37 NA NA ARLENE 1999-06-12 15:00:00 TS 28.3925 -57.3425 main 1401 1394 P_____________ AL011999 28.3925 -57.3425 TS 40 1008 0 2 335
1999163N27302 1999 37 NA NA ARLENE 1999-06-12 18:00:00 TS 28.5000 -57.4000 45 1008 hurdat_atl main 1403 1403 O_____________ hurdat_atl AL011999 28.5000 -57.4000 TS 45 1008 0 3 344
1999163N27302 1999 37 NA NA ARLENE 1999-06-12 21:00:00 TS 28.6500 -57.4350 main 1412 1412 P_____________ AL011999 28.6500 -57.4350 TS 47 1007 0 3 344
1999163N27302 1999 37 NA NA ARLENE 1999-06-13 00:00:00 TS 28.8000 -57.5000 50 1006 hurdat_atl main 1424 1424 O_____________ hurdat_atl AL011999 28.8000 -57.5000 TS 50 1006 0 3 328
1999163N27302 1999 37 NA NA ARLENE 1999-06-13 03:00:00 TS 28.9150 -57.6275 main 1427 1421 P_____________ AL011999 28.9150 -57.6275 TS 50 1006 0 3 307
1999163N27302 1999 37 NA NA ARLENE 1999-06-13 06:00:00 TS 29.0000 -57.8000 50 1006 hurdat_atl main 1424 1419 O_____________ hurdat_atl AL011999 29.0000 -57.8000 TS 50 1006 0 3 296
1999163N27302 1999 37 NA NA ARLENE 1999-06-13 09:00:00 TS 29.0650 -57.9850 main 1422 1412 P_____________ AL011999 29.0650 -57.9850 TS 50 1006 0 4 286
1999163N27302 1999 37 NA NA ARLENE 1999-06-13 12:00:00 TS 29.1000 -58.2000 50 1007 hurdat_atl main 1412 1401 O_____________ hurdat_atl AL011999 29.1000 -58.2000 TS 50 1007 0 4 276
1999163N27302 1999 37 NA NA ARLENE 1999-06-13 15:00:00 TS 29.1075 -58.4425 main 1401 1385 P_____________ AL011999 29.1075 -58.4425 TS 50 1007 0 4 270
1999163N27302 1999 37 NA NA ARLENE 1999-06-13 18:00:00 TS 29.1000 -58.7000 50 1007 hurdat_atl main 1385 1375 O_____________ hurdat_atl AL011999 29.1000 -58.7000 TS 50 1007 0 4 268
1999163N27302 1999 37 NA NA ARLENE 1999-06-13 21:00:00 TS 29.0924 -58.9426 main 1375 1360 P_____________ AL011999 29.0924 -58.9426 TS 47 1007 0 4 270
1999163N27302 1999 37 NA NA ARLENE 1999-06-14 00:00:00 TS 29.1000 -59.2000 45 1008 hurdat_atl main 1360 1346 O_____________ hurdat_atl AL011999 29.1000 -59.2000 TS 45 1008 0 5 276
1999163N27302 1999 37 NA NA ARLENE 1999-06-14 03:00:00 TS 29.1425 -59.4925 main 1346 1342 P_____________ AL011999 29.1425 -59.4925 TS 42 1008 0 5 281
1999163N27302 1999 37 NA NA ARLENE 1999-06-14 06:00:00 TS 29.2000 -59.8000 40 1009 hurdat_atl main 1342 1329 O_____________ hurdat_atl AL011999 29.2000 -59.8000 TS 40 1009 0 6 280
1999163N27302 1999 37 NA NA ARLENE 1999-06-14 09:00:00 TS 29.2351 -60.1226 main 1329 1325 P_____________ AL011999 29.2351 -60.1226 TS 40 1009 0 5 281
1999163N27302 1999 37 NA NA ARLENE 1999-06-14 12:00:00 TS 29.3000 -60.4000 40 1009 hurdat_atl main 1327 1323 O_____________ hurdat_atl AL011999 29.3000 -60.4000 TS 40 1009 0 4 298
1999163N27302 1999 37 NA NA ARLENE 1999-06-14 15:00:00 TS 29.4424 -60.5650 main 1329 1329 P_____________ AL011999 29.4424 -60.5650 TS 40 1009 0 4 319
1999163N27302 1999 37 NA NA ARLENE 1999-06-14 18:00:00 TS 29.6000 -60.7000 40 1009 hurdat_atl main 1346 1342 O_____________ hurdat_atl AL011999 29.6000 -60.7000 TS 40 1009 0 4 315
1999163N27302 1999 37 NA NA ARLENE 1999-06-14 21:00:00 TS 29.7300 -60.8924 main 1349 1349 P_____________ AL011999 29.7300 -60.8924 TS 40 1009 0 4 300
1999163N27302 1999 37 NA NA ARLENE 1999-06-15 00:00:00 TS 29.8000 -61.1000 40 1009 hurdat_atl main 1352 1346 O_____________ hurdat_atl AL011999 29.8000 -61.1000 TS 40 1009 0 4 276
1999163N27302 1999 37 NA NA ARLENE 1999-06-15 03:00:00 TS 29.7726 -61.3452 main 1346 1329 P_____________ AL011999 29.7726 -61.3452 TS 40 1009 0 4 254
1999163N27302 1999 37 NA NA ARLENE 1999-06-15 06:00:00 TS 29.7000 -61.5000 40 1009 hurdat_atl main 1329 1318 O_____________ hurdat_atl AL011999 29.7000 -61.5000 TS 40 1009 0 2 205
1999163N27302 1999 37 NA NA ARLENE 1999-06-15 09:00:00 TS 29.6200 -61.4224 main 1321 1321 P_____________ AL011999 29.6200 -61.4224 TS 42 1008 0 2 120
1999163N27302 1999 37 NA NA ARLENE 1999-06-15 12:00:00 TS 29.6000 -61.3000 45 1008 hurdat_atl main 1325 1325 O_____________ hurdat_atl AL011999 29.6000 -61.3000 TS 45 1008 0 1 39
1999163N27302 1999 37 NA NA ARLENE 1999-06-15 15:00:00 TS 29.7350 -61.3125 main 1335 1335 P_____________ AL011999 29.7350 -61.3125 TS 45 1008 0 3 344
1999163N27302 1999 37 NA NA ARLENE 1999-06-15 18:00:00 TS 29.9000 -61.4000 45 1009 hurdat_atl main 1353 1350 O_____________ hurdat_atl AL011999 29.9000 -61.4000 TS 45 1009 0 3 318
1999163N27302 1999 37 NA NA ARLENE 1999-06-15 21:00:00 TS 29.9500 -61.5351 main 1360 1354 P_____________ AL011999 29.9500 -61.5351 TS 45 1009 0 3 291
1999163N27302 1999 37 NA NA ARLENE 1999-06-16 00:00:00 TS 30.0000 -61.7000 45 1009 hurdat_atl main 1354 1351 O_____________ hurdat_atl AL011999 30.0000 -61.7000 TS 45 1009 0 3 302
1999163N27302 1999 37 NA NA ARLENE 1999-06-16 03:00:00 TS 30.1200 -61.8500 main 1359 1359 P_____________ AL011999 30.1200 -61.8500 TS 45 1009 0 4 319
1999163N27302 1999 37 NA NA ARLENE 1999-06-16 06:00:00 TS 30.3000 -62.0000 45 1010 hurdat_atl main 1378 1376 O_____________ hurdat_atl AL011999 30.3000 -62.0000 TS 45 1010 0 5 327
1999163N27302 1999 37 NA NA ARLENE 1999-06-16 09:00:00 TS 30.5350 -62.1574 main 1368 1343 P_____________ AL011999 30.5350 -62.1574 TS 42 1010 0 6 332
1999163N27302 1999 37 NA NA ARLENE 1999-06-16 12:00:00 TS 30.8000 -62.3000 40 1010 hurdat_atl main 1343 1324 O_____________ hurdat_atl AL011999 30.8000 -62.3000 TS 40 1010 0 6 338
1999163N27302 1999 37 NA NA ARLENE 1999-06-16 15:00:00 TS 31.0499 -62.4002 main 1324 1301 P_____________ AL011999 31.0499 -62.4002 TS 37 1011 0 5 341
1999163N27302 1999 37 NA NA ARLENE 1999-06-16 18:00:00 TS 31.3000 -62.5000 35 1012 hurdat_atl main 1301 1283 O_____________ hurdat_atl AL011999 31.3000 -62.5000 TS 35 1012 0 5 336
1999163N27302 1999 37 NA NA ARLENE 1999-06-16 21:00:00 TS 31.5350 -62.6500 main 1274 1251 P_____________ AL011999 31.5350 -62.6500 TS 32 1013 -1 6 333
1999163N27302 1999 37 NA NA ARLENE 1999-06-17 00:00:00 TS 31.8000 -62.8000 30 1014 hurdat_atl main 1251 1229 O_____________ hurdat_atl AL011999 31.8000 -62.8000 TD 30 1014 -1 6 338
1999163N27302 1999 37 NA NA ARLENE 1999-06-17 03:00:00 TS 32.1200 -62.9224 main 1229 1196 P_____________ AL011999 32.1200 -62.9224 TD 30 1014 -1 7 347
1999163N27302 1999 37 NA NA ARLENE 1999-06-17 06:00:00 TS 32.5000 -63.0000 30 1015 hurdat_atl main 1196 1152 O_____________ hurdat_atl AL011999 32.5000 -63.0000 TD 30 1015 -1 8 352
1999163N27302 1999 37 NA NA ARLENE 1999-06-17 09:00:00 TS 32.9273 -63.0668 main 1152 1109 P_____________ AL011999 32.9273 -63.0668 TD 30 1015 -1 9 0
1999163N27302 1999 37 NA NA ARLENE 1999-06-17 12:00:00 TS 33.4000 -63.0000 30 1015 hurdat_atl main 1109 1077 O_____________ hurdat_atl AL011999 33.4000 -63.0000 TD 30 1015 -1 10 17
1999163N27302 1999 37 NA NA ARLENE 1999-06-17 15:00:00 TS 33.8927 -62.7030 main 1077 1045 P_____________ AL011999 33.8927 -62.7030 TD 30 1015 -1 12 30
1999163N27302 1999 37 NA NA ARLENE 1999-06-17 18:00:00 TS 34.4000 -62.3000 30 1015 hurdat_atl main 1045 998 O_____________ hurdat_atl AL011999 34.4000 -62.3000 TD 30 1015 -1 12 32
1999163N27302 1999 37 NA NA ARLENE 1999-06-17 21:00:00 TS 34.9025 -61.9328 main 1000 955 P_____________ AL011999 34.9025 -61.9328 TD 27 1015 -1 12 30
1999163N27302 1999 37 NA NA ARLENE 1999-06-18 00:00:00 TS 35.4000 -61.6000 25 1015 hurdat_atl main 955 O_____________ hurdat_atl AL011999 35.4000 -61.6000 TD 25 1015 -1 11 29

About IBTrACS Database

This database is a web-friendly format of International Best Track Archive for Climate Stewardship (IBTrACS), a global best track data archive curated by NOAA dating back to 1842.

Updated: 2021-12-03